Time;durP1;ratioP1;P1;durP2;ratioP2;P2;SDS_P1;SDS_P2;PMS_P1;PMS_P2;Temp;Humidity;BMP_temperature;BMP_pressure;BME280_temperature;BME280_humidity;BME280_pressure;Samples;Min_cycle;Max_cycle;Signal;HPM_P1;HPM_P2
2022/12/25 00:00:07;;;;;;;41.78;13.82;;;;;;;8.70;100.00;101347.34;2599397;36;20031;-62
2022/12/25 00:02:35;;;;;;;35.42;13.63;;;;;;;8.78;100.00;101347.66;2615428;36;20582;-62
2022/12/25 00:05:04;;;;;;;31.92;13.18;;;;;;;8.72;100.00;101332.88;2615346;36;20061;-62
2022/12/25 00:07:33;;;;;;;41.25;12.05;;;;;;;8.77;100.00;101332.53;2615782;36;20034;-61
2022/12/25 00:10:02;;;;;;;41.15;13.15;;;;;;;8.76;100.00;101320.94;2615770;36;20042;-61
2022/12/25 00:12:32;;;;;;;37.40;13.05;;;;;;;8.87;100.00;101317.44;2616035;36;20041;-62
2022/12/25 00:15:01;;;;;;;39.30;12.85;;;;;;;8.90;100.00;101314.53;2615920;36;20030;-62
2022/12/25 00:17:29;;;;;;;43.28;12.27;;;;;;;8.81;100.00;101331.34;2615034;36;20513;-62
2022/12/25 00:19:57;;;;;;;31.27;11.80;;;;;;;8.83;100.00;101328.53;2615647;36;20046;-63
2022/12/25 00:22:26;;;;;;;49.03;13.68;;;;;;;8.88;100.00;101329.06;2615754;36;20052;-62
2022/12/25 00:24:54;;;;;;;41.10;12.52;;;;;;;8.88;100.00;101326.38;2615998;36;20038;-62
2022/12/25 00:27:22;;;;;;;35.88;12.30;;;;;;;8.81;100.00;101327.81;2616326;36;20527;-62
2022/12/25 00:29:53;;;;;;;36.05;11.32;;;;;;;8.96;100.00;101337.38;2615648;36;20029;-62
2022/12/25 00:32:22;;;;;;;36.03;13.45;;;;;;;9.09;100.00;101332.81;2615531;36;20034;-63
2022/12/25 00:34:50;;;;;;;48.15;12.77;;;;;;;9.11;100.00;101325.53;2614355;36;20871;-62
2022/12/25 00:37:18;;;;;;;40.97;12.40;;;;;;;9.19;100.00;101326.78;2615732;36;20038;-62
2022/12/25 00:39:49;;;;;;;40.88;13.18;;;;;;;9.14;100.00;101326.25;2615883;36;20034;-62
2022/12/25 00:42:22;;;;;;;31.98;12.02;;;;;;;9.27;100.00;101341.31;2616735;36;20415;-62
2022/12/25 00:44:54;;;;;;;34.83;12.52;;;;;;;9.29;100.00;101339.38;2616294;36;20041;-64
2022/12/25 00:47:22;;;;;;;37.90;11.98;;;;;;;9.34;100.00;101340.88;2615405;36;20038;-63
2022/12/25 00:49:50;;;;;;;38.85;12.68;;;;;;;9.28;100.00;101337.66;2615944;31;20072;-61
2022/12/25 00:52:19;;;;;;;40.13;12.27;;;;;;;9.36;100.00;101339.75;2617585;31;20561;-62
2022/12/25 00:54:47;;;;;;;33.83;12.23;;;;;;;9.32;100.00;101332.94;2615891;36;20295;-61
2022/12/25 00:57:15;;;;;;;35.05;12.75;;;;;;;9.32;100.00;101335.63;2616162;36;20034;-62
2022/12/25 00:59:44;;;;;;;34.87;13.03;;;;;;;9.31;100.00;101341.97;2615928;36;20435;-61
2022/12/25 01:02:27;;;;;;;35.95;12.73;;;;;;;9.40;100.00;101353.84;2615218;31;20038;-62
2022/12/25 01:04:57;;;;;;;42.25;12.30;;;;;;;9.51;100.00;101353.88;2615921;36;20041;-62
2022/12/25 01:07:27;;;;;;;30.55;12.20;;;;;;;9.44;100.00;101353.47;2615793;36;20050;-62
2022/12/25 01:12:41;;;;;;;34.38;11.27;;;;;;;9.45;100.00;101349.81;2615439;36;20031;-63
2022/12/25 01:15:11;;;;;;;36.38;10.90;;;;;;;9.57;100.00;101341.78;2614418;36;20038;-64
2022/12/25 01:17:42;;;;;;;32.25;11.38;;;;;;;9.47;100.00;101355.94;2615123;31;20542;-62
2022/12/25 01:20:12;;;;;;;32.33;11.63;;;;;;;9.51;100.00;101358.38;2615948;31;20039;-63
2022/12/25 01:22:40;;;;;;;30.13;11.27;;;;;;;9.58;100.00;101354.25;2615972;36;20555;-62
2022/12/25 01:25:10;;;;;;;35.85;10.55;;;;;;;9.56;100.00;101362.44;2632386;36;20026;-60
2022/12/25 01:27:38;;;;;;;;;;;;;;;9.43;100.00;101367.88;2615987;36;20042;-61
2022/12/25 01:30:08;;;;;;;33.45;11.38;;;;;;;9.57;100.00;101369.53;2614153;36;19953;-61
2022/12/25 01:32:36;;;;;;;30.92;12.23;;;;;;;9.65;100.00;101360.88;2615559;36;20034;-61
2022/12/25 01:35:08;;;;;;;38.13;14.05;;;;;;;9.59;100.00;101367.56;2616220;36;20416;-61
2022/12/25 01:37:36;;;;;;;31.75;13.13;;;;;;;9.56;100.00;101358.91;2616127;36;20023;-61
2022/12/25 01:40:06;;;;;;;42.33;14.63;;;;;;;9.59;100.00;101361.34;2615317;36;20022;-60
2022/12/25 01:42:34;;;;;;;38.22;13.70;;;;;;;9.58;100.00;101363.16;2616240;36;20034;-60
2022/12/25 01:45:31;;;;;;;32.85;13.60;;;;;;;9.71;100.00;101364.94;2614642;36;20475;-63
2022/12/25 01:48:00;;;;;;;39.10;13.15;;;;;;;9.63;100.00;101357.47;2616552;36;20428;-61
2022/12/25 01:50:31;;;;;;;40.40;14.48;;;;;;;9.71;100.00;101370.31;2615874;36;20027;-63
2022/12/25 01:53:00;;;;;;;33.75;12.73;;;;;;;9.75;100.00;101363.72;2614582;36;20563;-63
2022/12/25 01:55:29;;;;;;;37.65;13.05;;;;;;;9.82;100.00;101347.00;2614634;36;20034;-61
2022/12/25 01:57:58;;;;;;;34.95;12.73;;;;;;;9.89;100.00;101343.81;2615444;36;20027;-61
2022/12/25 02:00:26;;;;;;;30.20;11.98;;;;;;;9.78;100.00;101350.88;2615130;31;20035;-61
2022/12/25 02:02:55;;;;;;;30.00;12.52;;;;;;;9.83;100.00;101355.91;2616425;36;20416;-63
2022/12/25 02:05:29;;;;;;;37.25;13.00;;;;;;;9.71;100.00;101356.88;2616269;31;20041;-63
2022/12/25 02:08:03;;;;;;;37.85;11.88;;;;;;;9.74;100.00;101359.31;2615540;36;20038;-61
2022/12/25 02:10:32;;;;;;;31.13;11.38;;;;;;;9.81;100.00;101365.94;2614932;31;20034;-64
2022/12/25 02:13:01;;;;;;;33.97;11.13;;;;;;;9.64;100.00;101368.09;2615425;36;20540;-63
2022/12/25 02:15:36;;;;;;;25.63;10.57;;;;;;;9.71;100.00;101354.19;2615087;36;20306;-62
2022/12/25 02:18:11;;;;;;;38.65;10.63;;;;;;;9.73;100.00;101358.47;2612317;36;20452;-61
2022/12/25 02:21:10;;;;;;;33.45;11.32;;;;;;;9.74;100.00;101360.16;2607087;36;20023;-61
2022/12/25 02:23:53;;;;;;;;;;;;;;;9.74;100.00;101362.84;2614861;36;20165;-62
2022/12/25 02:26:43;;;;;;;25.25;11.90;;;;;;;9.65;100.00;101360.88;2614643;31;19954;-61
2022/12/25 02:29:23;;;;;;;27.38;10.70;;;;;;;9.67;100.00;101356.22;2614536;36;20042;-62
2022/12/25 02:31:58;;;;;;;34.95;11.73;;;;;;;9.60;100.00;101357.69;2615055;36;20039;-61
2022/12/25 02:34:35;;;;;;;30.65;11.15;;;;;;;9.74;100.00;101356.63;2615050;36;20040;-61
2022/12/25 02:37:09;;;;;;;28.35;12.55;;;;;;;9.78;100.00;101344.66;2615778;36;20444;-63
2022/12/25 02:40:00;;;;;;;29.10;10.90;;;;;;;9.69;100.00;101348.91;2614444;36;20030;-62
2022/12/25 03:07:09;;;;;;;35.58;11.38;;;;;;;9.45;100.00;101333.72;2616248;36;20122;-62
2022/12/25 03:12:32;;;;;;;34.88;11.57;;;;;;;9.38;100.00;101324.41;2615799;36;20040;-61
2022/12/25 03:17:44;;;;;;;30.80;11.23;;;;;;;9.49;100.00;101306.59;2616020;36;20036;-61
2022/12/25 03:28:17;;;;;;;29.90;12.20;;;;;;;9.44;100.00;101282.78;2615423;36;20551;-64
2022/12/25 03:35:21;;;;;;;24.35;11.88;;;;;;;9.32;100.00;101281.00;2615584;36;20134;-62
2022/12/25 03:36:54;;;;;;;29.05;11.55;;;;;;;9.36;100.00;101286.03;2615318;36;20790;-62
2022/12/25 04:36:43;;;;;;;27.98;12.02;;;;;;;9.78;100.00;101291.75;2616226;36;20034;-60
2022/12/25 04:39:14;;;;;;;35.05;11.85;;;;;;;9.90;100.00;101289.06;2615819;31;20054;-62
2022/12/25 04:41:42;;;;;;;36.65;12.63;;;;;;;10.00;100.00;101287.38;2616331;36;20038;-63
2022/12/25 04:44:11;;;;;;;33.75;13.38;;;;;;;9.98;100.00;101292.88;2616176;36;20351;-62
2022/12/25 04:46:39;;;;;;;23.45;10.27;;;;;;;9.97;100.00;101282.25;2616014;36;20031;-64
2022/12/25 04:49:07;;;;;;;37.50;11.55;;;;;;;9.98;100.00;101286.63;2615152;36;20034;-63
2022/12/25 04:51:37;;;;;;;25.42;11.20;;;;;;;9.97;100.00;101287.63;2616268;36;20027;-62
2022/12/25 04:54:06;;;;;;;26.13;10.02;;;;;;;10.09;100.00;101286.63;2615572;31;20034;-61
2022/12/25 04:56:44;;;;;;;28.35;11.02;;;;;;;9.96;100.00;101267.06;2615341;36;20026;-62
2022/12/25 04:59:13;;;;;;;24.15;10.80;;;;;;;10.11;100.00;101271.22;2615338;31;20034;-61
2022/12/25 05:01:41;;;;;;;25.88;10.80;;;;;;;10.09;100.00;101281.25;2616043;36;20053;-62
2022/12/25 05:04:10;;;;;;;28.73;10.25;;;;;;;9.99;100.00;101282.97;2615602;36;20030;-63
2022/12/25 05:06:39;;;;;;;24.88;10.52;;;;;;;10.07;100.00;101285.03;2615200;36;20026;-61
2022/12/25 05:09:07;;;;;;;28.25;11.50;;;;;;;10.01;100.00;101275.63;2608568;36;20073;-61
2022/12/25 05:11:38;;;;;;;23.15;9.85;;;;;;;9.94;100.00;101272.56;2615649;36;20046;-62
2022/12/25 05:14:06;;;;;;;25.77;9.73;;;;;;;10.08;100.00;101260.69;2615731;36;20042;-61
2022/12/25 05:16:35;;;;;;;16.65;9.32;;;;;;;10.20;100.00;101260.69;2616725;36;20388;-63
2022/12/25 05:19:03;;;;;;;21.88;9.02;;;;;;;10.18;100.00;101264.38;2615383;31;20034;-62
2022/12/25 05:21:31;;;;;;;21.10;9.55;;;;;;;10.10;100.00;101256.06;2616659;36;20042;-62
2022/12/25 05:24:00;;;;;;;22.27;8.77;;;;;;;10.07;100.00;101259.00;2614795;36;20034;-61
2022/12/25 05:26:29;;;;;;;19.70;8.70;;;;;;;10.07;100.00;101253.63;2615056;36;20038;-61
2022/12/25 05:29:01;;;;;;;14.98;7.72;;;;;;;10.25;100.00;101258.50;2615597;31;20039;-62
2022/12/25 05:31:29;;;;;;;17.75;8.18;;;;;;;10.05;100.00;101255.56;2616125;36;20126;-60
2022/12/25 05:33:57;;;;;;;16.95;7.53;;;;;;;9.93;100.00;101240.44;2615431;36;20033;-61
2022/12/25 05:36:26;;;;;;;16.45;7.55;;;;;;;10.04;100.00;101235.06;2615529;36;20443;-61
2022/12/25 05:38:54;;;;;;;18.70;8.50;;;;;;;9.95;100.00;101233.97;2615865;36;20029;-62
2022/12/25 05:41:22;;;;;;;18.30;7.73;;;;;;;9.94;100.00;101242.16;2614876;36;20038;-61
2022/12/25 05:43:51;;;;;;;15.02;6.60;;;;;;;9.95;100.00;101228.59;2615915;36;20037;-60
2022/12/25 05:46:22;;;;;;;17.13;7.35;;;;;;;9.94;100.00;101234.09;2615267;36;20553;-63
2022/12/25 05:48:50;;;;;;;15.20;6.65;;;;;;;9.91;100.00;101237.00;2615286;36;20038;-60
2022/12/25 05:51:19;;;;;;;19.33;7.35;;;;;;;9.88;100.00;101231.88;2615536;36;20617;-62
2022/12/25 05:53:47;;;;;;;16.95;7.05;;;;;;;9.78;100.00;101242.50;2615839;36;20450;-61
2022/12/25 05:56:15;;;;;;;17.98;7.22;;;;;;;9.76;100.00;101242.63;2614833;36;20026;-63
2022/12/25 05:58:44;;;;;;;12.18;6.70;;;;;;;9.80;100.00;101244.09;2614842;36;20030;-62
2022/12/25 06:01:14;;;;;;;13.70;6.27;;;;;;;9.75;100.00;101234.69;2616337;36;20459;-64
2022/12/25 06:03:45;;;;;;;15.27;7.05;;;;;;;9.74;100.00;101233.81;2614290;36;20299;-63
2022/12/25 06:06:14;;;;;;;18.27;6.55;;;;;;;9.75;100.00;101232.84;2615726;36;20023;-64
2022/12/25 06:08:43;;;;;;;;;;;;;;;9.71;100.00;101230.53;2615753;31;20447;-62
2022/12/25 06:11:13;;;;;;;16.92;6.00;;;;;;;9.65;100.00;101227.34;2614738;36;19945;-64
2022/12/25 06:13:41;;;;;;;16.13;6.82;;;;;;;9.79;100.00;101231.63;2616062;36;20443;-61
2022/12/25 06:16:12;;;;;;;21.73;6.88;;;;;;;9.76;100.00;101228.31;2615746;36;20038;-62
2022/12/25 06:18:42;;;;;;;16.25;6.57;;;;;;;9.68;100.00;101214.66;2614718;36;20042;-64
2022/12/25 06:21:15;;;;;;;14.65;6.57;;;;;;;9.63;100.00;101204.28;2614829;31;20030;-62
2022/12/25 06:23:44;;;;;;;16.70;7.18;;;;;;;9.58;100.00;101199.22;2614993;36;20022;-62
2022/12/25 06:26:16;;;;;;;21.42;9.98;;;;;;;9.51;100.00;101202.53;2614893;36;20034;-62
2022/12/25 06:28:45;;;;;;;29.08;14.65;;;;;;;9.68;100.00;101194.00;2614874;36;20030;-63
2022/12/25 06:31:16;;;;;;;29.08;14.40;;;;;;;9.60;100.00;101201.81;2613251;36;20027;-63
2022/12/25 06:33:44;;;;;;;20.48;9.50;;;;;;;9.60;100.00;101191.06;2615475;36;20047;-62
2022/12/25 06:36:17;;;;;;;16.10;7.53;;;;;;;9.74;100.00;101203.41;2614927;36;20023;-64
2022/12/25 06:38:46;;;;;;;14.88;6.55;;;;;;;9.79;100.00;101193.13;2615388;36;20038;-63
2022/12/25 06:41:17;;;;;;;15.00;7.00;;;;;;;9.62;100.00;101195.34;2614849;36;20038;-61
2022/12/25 06:43:48;;;;;;;16.08;6.55;;;;;;;9.62;100.00;101195.34;2614665;31;20049;-63
2022/12/25 06:46:17;;;;;;;17.85;7.32;;;;;;;9.61;100.00;101201.72;2614797;36;20542;-61
2022/12/25 06:48:49;;;;;;;13.77;6.03;;;;;;;9.62;100.00;101195.34;2614221;36;20038;-62
2022/12/25 06:51:22;;;;;;;20.40;6.82;;;;;;;9.62;100.00;101195.34;2615649;36;20035;-62
2022/12/25 06:53:52;;;;;;;13.65;6.25;;;;;;;9.53;100.00;101198.75;2615539;36;20045;-62
2022/12/25 06:56:28;;;;;;;13.23;6.18;;;;;;;9.61;100.00;101192.78;2615232;31;20085;-63
2022/12/25 06:58:58;;;;;;;16.83;6.65;;;;;;;9.62;100.00;101183.75;2615675;36;20435;-63
2022/12/25 07:01:29;;;;;;;14.32;5.90;;;;;;;9.67;100.00;101192.28;2614993;36;20030;-61
2022/12/25 07:04:00;;;;;;;14.35;6.25;;;;;;;9.79;100.00;101191.31;2614227;36;20034;-63
2022/12/25 07:06:32;;;;;;;14.52;6.22;;;;;;;9.73;100.00;101197.19;2614696;36;20523;-61
2022/12/25 07:09:00;;;;;;;15.05;6.53;;;;;;;9.77;100.00;101201.31;2615713;31;20042;-61
2022/12/25 07:11:29;;;;;;;16.58;5.90;;;;;;;9.81;100.00;101192.03;2614453;36;20066;-60
2022/12/25 07:13:58;;;;;;;11.80;5.70;;;;;;;9.79;100.00;101196.69;2614550;36;20030;-61
2022/12/25 07:16:26;;;;;;;10.70;6.13;;;;;;;9.74;100.00;101198.88;2615204;36;20037;-61
2022/12/25 07:18:54;;;;;;;16.15;6.20;;;;;;;9.68;100.00;101188.63;2615587;36;20034;-61
2022/12/25 07:21:23;;;;;;;14.95;6.30;;;;;;;9.70;100.00;101189.38;2615031;36;20037;-62
2022/12/25 07:23:54;;;;;;;13.50;6.57;;;;;;;9.68;100.00;101188.63;2615956;36;20030;-61
2022/12/25 07:26:22;;;;;;;11.27;6.57;;;;;;;9.70;100.00;101200.13;2615092;36;20035;-61
2022/12/25 07:28:51;;;;;;;14.50;6.80;;;;;;;9.72;100.00;101198.16;2616013;36;20440;-61
2022/12/25 07:31:20;;;;;;;15.02;7.15;;;;;;;9.70;100.00;101208.19;2615778;36;20038;-61
2022/12/25 07:33:49;;;;;;;13.18;6.78;;;;;;;9.77;100.00;101204.00;2614899;36;20043;-63
2022/12/25 07:36:17;;;;;;;13.90;7.13;;;;;;;9.75;100.00;101208.66;2615080;36;20031;-63
2022/12/25 07:38:49;;;;;;;12.60;6.23;;;;;;;9.78;100.00;101200.34;2615341;36;20053;-61
2022/12/25 07:41:20;;;;;;;12.27;6.45;;;;;;;9.81;100.00;101196.56;2615041;36;20022;-60
2022/12/25 07:43:51;;;;;;;14.52;6.57;;;;;;;9.80;100.00;101198.41;2616158;36;20029;-62
2022/12/25 07:46:20;;;;;;;13.60;7.55;;;;;;;9.68;100.00;101199.38;2616156;36;20057;-61
2022/12/25 07:48:48;;;;;;;14.65;7.20;;;;;;;9.74;100.00;101204.25;2615859;36;20031;-62
2022/12/25 07:51:17;;;;;;;14.05;6.93;;;;;;;9.82;100.00;101211.72;2615541;36;20042;-64
2022/12/25 07:53:46;;;;;;;13.85;6.53;;;;;;;9.78;100.00;101221.84;2615698;36;20031;-63
2022/12/25 07:56:16;;;;;;;13.77;7.20;;;;;;;9.99;100.00;101221.13;2615478;36;20600;-62
2022/12/25 07:58:47;;;;;;;15.38;6.80;;;;;;;9.74;100.00;101236.50;2616017;36;20516;-63
2022/12/25 08:01:19;;;;;;;11.90;6.15;;;;;;;9.82;100.00;101228.69;2616470;31;20436;-63
2022/12/25 08:03:50;;;;;;;20.90;6.53;;;;;;;9.81;100.00;101226.97;2615998;36;20022;-61
2022/12/25 08:06:21;;;;;;;12.48;6.65;;;;;;;9.81;100.00;101235.03;2615538;36;20034;-62
2022/12/25 08:08:50;;;;;;;12.55;7.00;;;;;;;9.74;100.00;101214.16;2615869;36;20045;-62
2022/12/25 08:11:18;;;;;;;15.98;7.07;;;;;;;9.74;100.00;101209.63;2615852;36;20030;-62
2022/12/25 08:13:49;;;;;;;16.52;6.70;;;;;;;9.84;100.00;101212.44;2616170;36;20035;-63
2022/12/25 08:16:18;;;;;;;17.35;6.68;;;;;;;9.85;100.00;101214.16;2615844;36;20401;-62
2022/12/25 08:18:46;;;;;;;18.10;6.45;;;;;;;9.86;100.00;101228.47;2616093;36;20042;-64
2022/12/25 08:21:16;;;;;;;11.35;6.38;;;;;;;9.91;100.00;101229.81;2615743;36;20034;-62
2022/12/25 08:23:47;;;;;;;12.57;6.20;;;;;;;9.96;100.00;101249.09;2615762;36;20034;-63
2022/12/25 08:26:17;;;;;;;15.07;6.75;;;;;;;10.02;100.00;101250.44;2613259;31;20042;-63
2022/12/25 08:28:46;;;;;;;11.13;5.68;;;;;;;10.09;100.00;101254.34;2615999;36;20539;-63
2022/12/25 08:31:19;;;;;;;10.75;5.90;;;;;;;10.16;100.00;101257.41;2614849;36;20038;-62
2022/12/25 08:33:48;;;;;;;13.57;6.80;;;;;;;10.19;100.00;101262.56;2615552;36;20030;-63
2022/12/25 08:36:16;;;;;;;14.07;6.20;;;;;;;10.08;100.00;101262.56;2616736;31;20649;-63
2022/12/25 08:38:45;;;;;;;12.43;5.53;;;;;;;10.22;100.00;101256.03;2615955;36;20038;-63
2022/12/25 08:41:14;;;;;;;12.27;5.95;;;;;;;10.14;100.00;101236.03;2615507;31;20038;-63
2022/12/25 08:43:43;;;;;;;10.32;6.05;;;;;;;10.05;100.00;101227.84;2615853;36;20031;-63
2022/12/25 08:46:11;;;;;;;11.23;6.20;;;;;;;10.11;100.00;101228.19;2616048;36;20928;-62
2022/12/25 08:48:43;;;;;;;15.77;6.05;;;;;;;10.06;100.00;101232.25;2614809;36;21536;-61
2022/12/25 08:51:15;;;;;;;18.40;6.30;;;;;;;10.31;100.00;101231.09;2615585;36;20583;-65
2022/12/25 08:53:44;;;;;;;16.05;6.13;;;;;;;10.29;100.00;101214.22;2613573;36;20034;-61
2022/12/25 08:56:13;;;;;;;8.77;5.38;;;;;;;10.28;100.00;101209.84;2615319;36;20629;-60
2022/12/25 08:58:44;;;;;;;;;;;;;;;10.29;100.00;101201.63;2616073;36;20419;-62
2022/12/25 09:01:14;;;;;;;12.60;6.15;;;;;;;10.30;100.00;101202.47;2614775;36;19950;-60
2022/12/25 09:03:45;;;;;;;10.23;5.85;;;;;;;10.34;100.00;101215.59;2615703;36;20023;-61
2022/12/25 09:06:19;;;;;;;8.95;5.75;;;;;;;10.23;100.00;101217.41;2616036;36;20037;-61
2022/12/25 09:08:48;;;;;;;9.65;5.50;;;;;;;10.08;100.00;101223.06;2614871;36;20031;-61
2022/12/25 09:11:17;;;;;;;10.97;5.23;;;;;;;10.02;100.00;101218.19;2615152;36;20034;-61
2022/12/25 09:13:45;;;;;;;;;;;;;;;10.13;100.00;101220.84;2616229;36;20302;-63
2022/12/25 09:16:16;;;;;;;11.25;5.60;;;;;;;10.25;100.00;101213.63;2615819;36;19957;-62
2022/12/25 09:18:48;;;;;;;11.02;5.78;;;;;;;10.18;100.00;101217.78;2614391;36;20041;-61
2022/12/25 09:21:17;;;;;;;16.08;6.22;;;;;;;10.22;100.00;101207.63;2615251;36;20035;-61
2022/12/25 09:23:46;;;;;;;12.95;6.57;;;;;;;10.25;100.00;101207.41;2615955;36;20062;-61
2022/12/25 09:26:17;;;;;;;12.65;5.50;;;;;;;10.29;100.00;101211.53;2614946;36;20030;-60
2022/12/25 09:28:45;;;;;;;9.30;5.22;;;;;;;10.24;100.00;101214.59;2615279;36;20023;-61
2022/12/25 09:31:14;;;;;;;16.70;5.43;;;;;;;10.30;100.00;101235.63;2615467;36;20571;-65
2022/12/25 09:33:42;;;;;;;12.60;5.67;;;;;;;10.35;100.00;101221.84;2615358;36;20030;-62
2022/12/25 09:36:13;;;;;;;8.45;5.68;;;;;;;10.39;100.00;101215.19;2614585;36;20436;-61
2022/12/25 09:38:42;;;;;;;7.90;5.68;;;;;;;10.30;100.00;101215.94;2616487;36;20038;-61
2022/12/25 09:41:18;;;;;;;19.27;5.80;;;;;;;10.27;100.00;101222.41;2614493;36;20042;-61
2022/12/25 09:43:50;;;;;;;8.48;5.40;;;;;;;10.26;100.00;101230.59;2614580;36;20590;-61
2022/12/25 09:46:23;;;;;;;13.82;5.88;;;;;;;10.30;100.00;101222.16;2615122;36;20038;-62
2022/12/25 09:49:00;;;;;;;9.50;5.18;;;;;;;10.22;100.00;101215.69;2613504;36;20027;-61
2022/12/25 09:51:33;;;;;;;8.65;5.82;;;;;;;10.33;100.00;101219.28;2614705;36;20041;-63
2022/12/25 09:54:06;;;;;;;10.45;6.05;;;;;;;10.28;100.00;101217.91;2581367;36;20035;-62
2022/12/25 09:56:35;;;;;;;12.15;6.30;;;;;;;10.14;100.00;101227.09;2615449;31;20081;-61
2022/12/25 09:59:03;;;;;;;11.45;5.78;;;;;;;10.23;100.00;101209.34;2615177;36;20034;-61
2022/12/25 10:01:41;;;;;;;10.67;5.33;;;;;;;10.37;100.00;101217.19;2614704;36;20039;-62
2022/12/25 10:04:32;;;;;;;8.20;5.30;;;;;;;10.43;100.00;101224.75;2614716;36;20042;-64
2022/12/25 10:07:14;;;;;;;10.85;5.70;;;;;;;10.49;100.00;101210.78;2613305;36;20030;-61
2022/12/25 10:09:55;;;;;;;14.05;5.43;;;;;;;10.54;100.00;101213.09;2615629;36;21040;-64
2022/12/25 10:12:40;;;;;;;11.60;6.10;;;;;;;10.46;100.00;101199.41;2615966;36;20427;-61
2022/12/25 10:15:33;;;;;;;11.40;5.38;;;;;;;10.33;100.00;101196.84;2615958;36;20034;-62
2022/12/25 10:18:35;;;;;;;7.80;4.30;;;;;;;10.31;100.00;101201.50;2615392;36;20023;-61
2022/12/25 10:21:06;;;;;;;16.45;5.75;;;;;;;10.31;100.00;101214.97;2615824;31;20022;-61
2022/12/25 10:23:41;;;;;;;13.90;5.50;;;;;;;10.47;100.00;101218.13;2615180;36;20539;-61
2022/12/25 10:26:16;;;;;;;8.73;5.00;;;;;;;10.50;100.00;101223.25;2615099;36;21156;-62
2022/12/25 10:28:47;;;;;;;15.00;5.50;;;;;;;10.59;100.00;101199.25;2615488;36;20038;-62
2022/12/25 10:31:27;;;;;;;10.07;5.82;;;;;;;10.59;100.00;101193.88;2615694;31;20030;-62
2022/12/25 10:33:58;;;;;;;13.23;5.72;;;;;;;10.48;100.00;101192.06;2614461;36;20034;-62
2022/12/25 10:36:28;;;;;;;9.43;5.10;;;;;;;10.57;100.00;101201.22;2613783;31;20034;-64
2022/12/25 10:39:00;;;;;;;10.65;5.45;;;;;;;10.65;100.00;101183.44;2616005;31;20034;-61
2022/12/25 10:41:39;;;;;;;16.88;6.32;;;;;;;10.58;100.00;101176.00;2615104;36;20041;-62
2022/12/25 10:44:14;;;;;;;;;;;;;;;10.66;100.00;101173.53;2615215;36;20022;-61
2022/12/25 10:46:43;;;;;;;16.17;6.30;;;;;;;10.73;100.00;101166.63;2615995;36;19957;-60
2022/12/25 10:49:17;;;;;;;10.63;5.38;;;;;;;10.69;100.00;101167.91;2613683;36;20126;-60
2022/12/25 10:51:46;;;;;;;12.43;6.38;;;;;;;10.57;100.00;101182.38;2609395;36;20037;-61
2022/12/25 10:54:26;;;;;;;10.45;6.88;;;;;;;10.61;100.00;101151.53;2608617;36;20038;-61
2022/12/25 10:56:59;;;;;;;11.95;6.05;;;;;;;10.56;100.00;101149.22;2615511;31;20551;-61
2022/12/25 10:59:29;;;;;;;14.07;6.07;;;;;;;10.42;100.00;101155.75;2614738;36;20551;-61
2022/12/25 11:02:05;;;;;;;14.68;6.70;;;;;;;10.42;100.00;101139.59;2604600;36;20431;-61
2022/12/25 11:04:36;;;;;;;12.80;6.25;;;;;;;10.40;100.00;101125.44;2615098;31;20034;-62
2022/12/25 11:07:09;;;;;;;12.85;6.75;;;;;;;10.31;100.00;101136.94;2614837;36;20030;-61
2022/12/25 11:09:41;;;;;;;11.40;6.13;;;;;;;10.32;100.00;101125.19;2615651;36;20030;-61
2022/12/25 11:12:19;;;;;;;11.32;6.47;;;;;;;10.28;100.00;101116.53;2614436;36;20035;-62
2022/12/25 11:14:56;;;;;;;10.57;6.80;;;;;;;10.30;100.00;101127.16;2615207;36;20043;-61
2022/12/25 11:17:26;;;;;;;12.98;6.50;;;;;;;10.18;100.00;101116.41;2615377;36;20045;-63
2022/12/25 11:19:56;;;;;;;14.65;7.63;;;;;;;10.26;100.00;101112.25;2616035;36;20039;-64
2022/12/25 11:22:25;;;;;;;17.10;6.97;;;;;;;10.27;100.00;101119.34;2614346;36;20034;-61
2022/12/25 11:24:56;;;;;;;12.82;6.25;;;;;;;10.29;100.00;101109.28;2614025;36;20037;-61
2022/12/25 11:27:32;;;;;;;15.98;7.03;;;;;;;10.27;100.00;101117.50;2616053;36;20034;-61
2022/12/25 11:30:03;;;;;;;14.27;7.53;;;;;;;10.40;100.00;101103.06;2615440;31;20035;-62
2022/12/25 11:32:36;;;;;;;11.65;6.53;;;;;;;10.46;100.00;101092.63;2615474;36;20022;-61
2022/12/25 11:35:05;;;;;;;16.48;7.00;;;;;;;10.36;100.00;101083.63;2613131;36;20031;-61
2022/12/25 11:37:39;;;;;;;15.35;6.93;;;;;;;10.39;100.00;101079.81;2615226;36;20034;-62
2022/12/25 11:40:16;;;;;;;12.68;6.95;;;;;;;10.37;100.00;101088.03;2616127;36;20026;-61
2022/12/25 11:42:49;;;;;;;14.45;6.65;;;;;;;10.30;100.00;101058.03;2616020;36;20028;-61
2022/12/25 11:45:22;;;;;;;15.73;7.13;;;;;;;10.29;100.00;101042.03;2616303;31;20022;-62
2022/12/25 11:47:54;;;;;;;15.35;7.85;;;;;;;10.41;100.00;101046.44;2615851;36;20034;-63
2022/12/25 11:50:29;;;;;;;15.80;7.75;;;;;;;10.52;100.00;101035.59;2615423;36;20069;-62
2022/12/25 11:53:02;;;;;;;15.60;8.18;;;;;;;10.47;100.00;101021.69;2615716;36;20094;-63
2022/12/25 11:55:40;;;;;;;16.77;8.38;;;;;;;10.63;100.00;101023.91;2611927;36;20023;-63
2022/12/25 11:58:17;;;;;;;19.00;8.35;;;;;;;10.67;100.00;101021.78;2613979;36;20034;-62
2022/12/25 12:00:53;;;;;;;16.38;8.30;;;;;;;10.73;100.00;101010.50;2606930;36;20448;-62
2022/12/25 12:03:27;;;;;;;15.57;7.97;;;;;;;10.63;100.00;101010.44;2615212;36;20026;-63
2022/12/25 12:06:01;;;;;;;14.55;7.70;;;;;;;10.61;100.00;101038.47;2608702;36;20556;-63
2022/12/25 12:08:30;;;;;;;14.32;7.72;;;;;;;10.65;100.00;101032.69;2615465;36;20030;-63
2022/12/25 12:11:20;;;;;;;11.32;6.28;;;;;;;10.71;100.00;101019.69;2615590;31;20035;-63
2022/12/25 12:14:05;;;;;;;14.77;7.80;;;;;;;10.54;100.00;101032.78;2615284;36;20023;-64
2022/12/25 12:16:36;;;;;;;14.85;7.22;;;;;;;10.50;100.00;101024.09;2616000;36;20335;-62
2022/12/25 12:19:27;;;;;;;14.02;6.95;;;;;;;10.46;100.00;101024.50;2617188;36;20042;-63
2022/12/25 12:21:57;;;;;;;17.50;8.05;;;;;;;10.56;100.00;101032.66;2614976;36;20190;-62
2022/12/25 12:24:29;;;;;;;17.13;8.15;;;;;;;10.51;100.00;101031.22;2615449;31;20678;-61
2022/12/25 12:27:08;;;;;;;17.63;7.90;;;;;;;10.53;100.00;101033.75;2615203;36;20026;-63
2022/12/25 12:29:41;;;;;;;18.63;8.80;;;;;;;10.69;100.00;101022.53;2614894;36;20045;-63
2022/12/25 12:32:29;;;;;;;15.80;7.78;;;;;;;10.62;100.00;101024.03;2615827;31;20035;-62
2022/12/25 12:35:00;;;;;;;15.05;8.73;;;;;;;10.64;100.00;101014.00;2615648;36;20037;-62
2022/12/25 12:37:33;;;;;;;13.02;7.60;;;;;;;10.59;100.00;101010.84;2615105;36;20072;-61
2022/12/25 12:40:02;;;;;;;17.80;7.90;;;;;;;10.48;100.00;101006.38;2614681;31;20539;-61
2022/12/25 12:42:39;;;;;;;13.85;7.65;;;;;;;10.50;100.00;101013.34;2615215;31;20038;-62
2022/12/25 12:45:17;;;;;;;14.88;7.78;;;;;;;10.70;100.00;100994.59;2614172;36;20037;-60
2022/12/25 12:47:49;;;;;;;15.27;7.23;;;;;;;10.57;100.00;100985.88;2613556;36;20232;-62
2022/12/25 12:50:42;;;;;;;11.77;7.38;;;;;;;10.56;100.00;100978.81;2612821;36;20314;-59
2022/12/25 12:53:29;;;;;;;13.40;7.18;;;;;;;10.59;100.00;100976.72;2613574;36;20162;-59
2022/12/25 12:55:58;;;;;;;16.88;8.52;;;;;;;10.52;100.00;100979.06;2615414;31;20063;-59
2022/12/25 12:58:32;;;;;;;16.23;7.88;;;;;;;10.54;100.00;100986.16;2612977;36;20035;-60
2022/12/25 13:01:14;;;;;;;14.73;7.93;;;;;;;10.57;100.00;100980.50;2614061;36;20494;-59
2022/12/25 13:04:02;;;;;;;15.70;8.15;;;;;;;10.50;100.00;101002.56;2614566;36;20034;-64
2022/12/25 13:06:38;;;;;;;13.05;8.05;;;;;;;10.41;100.00;100994.44;2608305;36;20498;-61
2022/12/25 13:09:20;;;;;;;16.15;7.68;;;;;;;10.54;100.00;100996.94;2614844;36;20034;-59
2022/12/25 13:11:49;;;;;;;13.75;8.02;;;;;;;10.50;100.00;100980.22;2615045;36;20049;-60
2022/12/25 13:14:22;;;;;;;16.23;7.72;;;;;;;10.48;100.00;100983.03;2606951;31;20034;-60